Time;durP1;ratioP1;P1;durP2;ratioP2;P2;SDS_P1;SDS_P2;PMS_P1;PMS_P2;Temp;Humidity;BMP_temperature;BMP_pressure;BME280_temperature;BME280_humidity;BME280_pressure;Samples;Min_cycle;Max_cycle;Signal;HPM_P1;HPM_P2
2023/03/28 00:01:55;;;;;;;1.07;1.00;;;2.20;97.30;;;;;;5106942;28;20166;-85
2023/03/28 00:04:21;;;;;;;1.60;1.47;;;2.20;97.30;;;;;;5104445;28;20417;-82
2023/03/28 00:06:48;;;;;;;1.20;1.10;;;2.20;97.30;;;;;;5105082;28;20175;-84
2023/03/28 00:09:16;;;;;;;8.33;1.30;;;2.20;97.30;;;;;;5102871;28;20468;-83
2023/03/28 00:11:42;;;;;;;1.00;0.90;;;2.20;97.30;;;;;;5104600;28;20452;-84
2023/03/28 00:14:08;;;;;;;1.10;1.00;;;2.20;97.30;;;;;;5100978;28;20483;-84
2023/03/28 00:16:38;;;;;;;1.10;1.00;;;2.20;97.30;;;;;;5104480;28;20175;-83
2023/03/28 00:19:10;;;;;;;1.00;0.90;;;2.20;97.30;;;;;;5105558;28;20210;-84
2023/03/28 00:21:40;;;;;;;1.20;1.10;;;2.20;97.30;;;;;;5096936;28;20417;-83
2023/03/28 00:24:09;;;;;;;1.07;0.97;;;2.20;97.30;;;;;;5105880;28;20443;-83
2023/03/28 00:26:36;;;;;;;1.20;1.10;;;2.20;97.30;;;;;;5105466;28;20416;-84
2023/03/28 00:29:03;;;;;;;1.70;1.60;;;2.20;97.30;;;;;;5104744;28;20508;-85
2023/03/28 00:31:30;;;;;;;1.73;1.63;;;2.10;97.30;;;;;;5107018;28;20471;-84
2023/03/28 00:33:56;;;;;;;1.20;1.10;;;2.10;97.30;;;;;;5105038;28;20456;-83
2023/03/28 00:36:25;;;;;;;20.53;1.43;;;2.00;97.30;;;;;;5105975;28;20411;-84
2023/03/28 00:39:17;;;;;;;1.20;1.10;;;2.00;97.30;;;;;;5106254;28;20474;-84
2023/03/28 00:41:44;;;;;;;1.13;1.03;;;2.00;97.30;;;;;;5101616;28;20435;-84
2023/03/28 00:44:40;;;;;;;1.87;1.80;;;2.00;97.30;;;;;;5104794;28;20451;-83
2023/03/28 00:47:15;;;;;;;1.20;1.10;;;2.00;97.30;;;;;;5098164;28;20428;-84
2023/03/28 00:49:43;;;;;;;1.20;1.10;;;2.00;97.30;;;;;;5095481;28;20440;-84
2023/03/28 00:52:12;;;;;;;1.57;1.47;;;2.10;97.30;;;;;;5097473;28;20946;-85
2023/03/28 00:54:39;;;;;;;1.00;0.90;;;2.10;97.30;;;;;;5095138;28;20481;-84
2023/03/28 00:57:07;;;;;;;1.20;1.10;;;2.10;97.30;;;;;;5096834;28;20476;-84
2023/03/28 00:59:35;;;;;;;1.00;0.90;;;2.10;97.30;;;;;;5103669;28;21009;-84
2023/03/28 01:02:01;;;;;;;0.90;0.80;;;2.20;97.30;;;;;;5105184;28;20484;-84
2023/03/28 01:04:35;;;;;;;1.00;0.90;;;2.20;97.30;;;;;;5105701;28;20495;-83
2023/03/28 01:07:02;;;;;;;1.63;1.10;;;2.20;97.30;;;;;;5104375;28;20430;-82
2023/03/28 01:09:27;;;;;;;0.90;0.80;;;2.20;97.30;;;;;;5103924;28;20892;-83
2023/03/28 01:11:56;;;;;;;1.87;1.57;;;2.30;97.30;;;;;;5104148;28;20408;-85
2023/03/28 01:14:23;;;;;;;1.20;1.10;;;2.30;97.30;;;;;;5103941;28;20217;-87
2023/03/28 01:16:50;;;;;;;1.37;1.27;;;2.30;97.30;;;;;;5103413;28;20444;-84
2023/03/28 01:19:50;;;;;;;1.00;0.90;;;2.30;97.30;;;;;;5103403;28;20436;-85
2023/03/28 01:22:30;;;;;;;7.30;1.40;;;2.20;97.30;;;;;;5102734;28;20416;-83
2023/03/28 01:25:14;;;;;;;6.10;1.73;;;2.20;97.30;;;;;;5103201;28;20416;-85
2023/03/28 01:28:01;;;;;;;1.30;1.20;;;2.30;97.30;;;;;;5106550;28;20427;-83
2023/03/28 01:30:47;;;;;;;4.70;1.93;;;2.30;97.30;;;;;;5101640;28;20420;-84
2023/03/28 01:33:27;;;;;;;1.00;0.90;;;2.30;97.30;;;;;;5091480;28;21009;-85
2023/03/28 01:36:11;;;;;;;2.30;1.87;;;2.40;97.30;;;;;;5096503;28;20433;-86
2023/03/28 01:38:46;;;;;;;1.10;1.00;;;2.40;97.30;;;;;;5096016;28;20491;-86
2023/03/28 01:41:55;;;;;;;1.33;1.23;;;2.40;97.30;;;;;;5089494;28;20825;-86
2023/03/28 01:44:28;;;;;;;5.00;1.63;;;2.40;97.30;;;;;;5081736;28;20417;-85
2023/03/28 01:47:04;;;;;;;1.60;1.50;;;2.40;97.30;;;;;;5096771;28;20424;-86
2023/03/28 01:50:20;;;;;;;8.13;2.60;;;2.40;97.30;;;;;;5093639;28;20942;-82
2023/03/28 01:53:02;;;;;;;1.23;1.13;;;2.50;97.30;;;;;;5092479;28;20445;-84
2023/03/28 01:55:41;;;;;;;1.10;1.00;;;2.50;97.30;;;;;;5090393;28;20480;-85
2023/03/28 01:58:15;;;;;;;1.47;1.37;;;2.50;97.30;;;;;;5109481;28;20466;-86
2023/03/28 02:00:43;;;;;;;1.00;0.90;;;2.50;97.30;;;;;;5096749;28;20448;-87
2023/03/28 02:03:29;;;;;;;1.30;1.20;;;2.50;97.30;;;;;;5091572;28;20890;-84
2023/03/28 02:05:56;;;;;;;1.77;1.67;;;2.50;97.30;;;;;;5096194;28;20416;-84
2023/03/28 02:08:26;;;;;;;1.10;1.00;;;2.50;97.30;;;;;;5097297;28;20437;-84
2023/03/28 02:10:55;;;;;;;1.30;1.20;;;2.50;97.30;;;;;;5096999;28;20404;-86
2023/03/28 02:13:32;;;;;;;1.20;1.10;;;2.40;97.30;;;;;;5098880;28;20463;-85
2023/03/28 02:16:00;;;;;;;1.00;0.90;;;2.40;97.30;;;;;;5098388;28;20444;-86
2023/03/28 02:18:36;;;;;;;1.40;1.30;;;2.40;97.30;;;;;;5110244;28;20452;-86
2023/03/28 02:21:09;;;;;;;1.30;1.20;;;2.30;97.30;;;;;;5097027;28;20420;-83
2023/03/28 02:23:46;;;;;;;14.63;2.13;;;2.30;97.30;;;;;;5091587;28;20417;-84
2023/03/28 02:26:12;;;;;;;1.00;0.90;;;2.30;97.30;;;;;;5092930;28;20424;-86
2023/03/28 02:28:39;;;;;;;1.87;1.77;;;2.30;97.30;;;;;;5094013;28;20522;-84
2023/03/28 02:31:06;;;;;;;1.20;1.10;;;2.30;97.30;;;;;;5092519;28;20495;-85
2023/03/28 02:33:36;;;;;;;4.60;1.87;;;2.30;97.30;;;;;;5093817;28;20459;-86
2023/03/28 02:36:23;;;;;;;2.80;2.60;;;2.30;97.30;;;;;;5094657;28;20431;-85
2023/03/28 02:39:09;;;;;;;1.20;1.10;;;2.20;97.30;;;;;;5095806;28;20432;-88
2023/03/28 02:42:05;;;;;;;1.10;1.00;;;2.20;97.30;;;;;;5095806;28;20455;-84
2023/03/28 02:44:50;;;;;;;4.80;1.97;;;2.20;97.30;;;;;;5093965;28;20420;-84
2023/03/28 02:47:37;;;;;;;1.53;1.50;;;2.30;97.30;;;;;;5094945;28;20428;-87
2023/03/28 02:50:35;;;;;;;1.30;1.20;;;2.30;97.30;;;;;;5097288;28;20436;-87
2023/03/28 02:53:21;;;;;;;1.40;1.20;;;2.30;97.30;;;;;;5093974;28;20503;-89
2023/03/28 02:55:56;;;;;;;1.10;1.00;;;2.40;97.30;;;;;;5095328;28;20409;-88
2023/03/28 02:58:36;;;;;;;0.97;0.87;;;2.40;97.30;;;;;;5081306;28;20506;-86
2023/03/28 03:01:05;;;;;;;10.03;1.47;;;2.40;97.30;;;;;;5094383;28;20416;-86
2023/03/28 03:03:37;;;;;;;1.40;1.30;;;2.40;97.30;;;;;;5086385;28;20488;-88
2023/03/28 03:06:05;;;;;;;1.00;0.90;;;2.40;97.30;;;;;;5098140;28;20423;-89
2023/03/28 03:08:36;;;;;;;1.10;1.00;;;2.40;97.30;;;;;;5108099;28;20432;-88
2023/03/28 03:11:06;;;;;;;1.20;1.10;;;2.40;97.30;;;;;;5109241;28;20429;-87
2023/03/28 03:13:34;;;;;;;1.20;1.10;;;2.30;97.30;;;;;;5103305;28;20453;-88
2023/03/28 03:16:00;;;;;;;1.57;1.47;;;2.30;97.30;;;;;;5097562;28;20508;-87
2023/03/28 03:18:26;;;;;;;9.40;2.10;;;2.20;97.30;;;;;;5091762;28;20461;-87
2023/03/28 03:20:52;;;;;;;1.23;1.13;;;2.20;97.30;;;;;;5099660;28;20207;-89
2023/03/28 03:23:18;;;;;;;2.20;1.87;;;2.20;97.30;;;;;;5106374;28;20420;-88
2023/03/28 03:25:44;;;;;;;1.40;1.30;;;2.10;97.30;;;;;;5097496;28;20220;-85
2023/03/28 03:28:10;;;;;;;1.10;1.00;;;2.00;97.30;;;;;;5097518;28;20435;-85
2023/03/28 03:30:36;;;;;;;1.10;1.00;;;1.90;97.30;;;;;;5100062;28;20494;-87
2023/03/28 03:33:03;;;;;;;1.00;0.90;;;1.90;97.30;;;;;;5092789;28;20471;-88
2023/03/28 03:35:32;;;;;;;1.83;1.73;;;1.80;97.30;;;;;;5112487;28;20470;-88
2023/03/28 03:37:58;;;;;;;1.67;1.57;;;1.80;97.30;;;;;;5097487;28;20413;-87
2023/03/28 03:40:26;;;;;;;1.20;1.10;;;1.80;97.30;;;;;;5110787;28;20939;-88
2023/03/28 03:42:51;;;;;;;3.17;1.40;;;1.80;97.30;;;;;;5104966;28;20416;-88
2023/03/28 03:45:17;;;;;;;1.10;1.00;;;1.70;97.30;;;;;;5100800;28;20436;-89
2023/03/28 03:47:43;;;;;;;1.80;1.40;;;1.70;97.30;;;;;;5103855;28;20181;-86
2023/03/28 03:50:10;;;;;;;1.20;1.10;;;1.70;97.30;;;;;;5096973;28;20206;-87
2023/03/28 03:52:36;;;;;;;2.07;1.93;;;1.70;97.30;;;;;;5099241;28;20185;-86
2023/03/28 03:55:04;;;;;;;1.20;1.10;;;1.70;97.30;;;;;;5099935;28;20460;-88
2023/03/28 03:57:33;;;;;;;1.20;1.10;;;1.70;97.30;;;;;;5108650;28;20419;-87
2023/03/28 03:59:59;;;;;;;5.00;2.00;;;1.70;97.30;;;;;;5099538;28;20436;-88
2023/03/28 04:02:25;;;;;;;1.53;1.20;;;1.70;97.30;;;;;;5093980;28;20537;-88
2023/03/28 04:04:52;;;;;;;1.00;0.90;;;1.70;97.30;;;;;;5099787;28;20451;-88
2023/03/28 04:07:18;;;;;;;1.00;0.90;;;1.80;97.30;;;;;;5106704;28;20470;-88
2023/03/28 04:09:44;;;;;;;2.20;1.50;;;1.80;97.30;;;;;;5103352;28;20432;-88
2023/03/28 04:12:10;;;;;;;1.87;1.77;;;1.80;97.30;;;;;;5109230;28;20580;-88
2023/03/28 04:14:36;;;;;;;1.20;1.10;;;1.80;97.30;;;;;;5087347;28;20214;-84
2023/03/28 04:17:03;;;;;;;1.00;0.90;;;1.80;97.30;;;;;;5098548;28;20982;-88
2023/03/28 04:19:29;;;;;;;1.60;1.50;;;1.80;97.30;;;;;;5093323;28;20783;-86
2023/03/28 04:21:55;;;;;;;1.17;1.07;;;1.80;97.30;;;;;;5095365;28;20447;-87
2023/03/28 04:24:27;;;;;;;1.20;1.10;;;1.90;97.30;;;;;;5095561;28;20178;-87
2023/03/28 04:26:55;;;;;;;9.13;2.10;;;1.90;97.30;;;;;;5090478;28;20427;-87
2023/03/28 04:29:29;;;;;;;1.33;1.23;;;1.90;97.30;;;;;;5086925;28;20440;-87
2023/03/28 04:31:56;;;;;;;1.60;1.50;;;1.90;97.30;;;;;;5092266;28;20471;-87
2023/03/28 04:34:28;;;;;;;1.33;1.23;;;1.90;97.30;;;;;;5075981;28;20558;-86
2023/03/28 04:37:00;;;;;;;1.40;1.30;;;1.90;97.30;;;;;;5091785;28;20421;-88
2023/03/28 04:39:29;;;;;;;1.10;1.00;;;1.90;97.30;;;;;;5091318;28;20867;-86
2023/03/28 04:41:55;;;;;;;1.10;1.00;;;1.90;97.30;;;;;;5090972;28;20717;-88
2023/03/28 04:44:24;;;;;;;1.60;1.50;;;1.90;97.30;;;;;;5088283;28;20409;-87
2023/03/28 04:46:50;;;;;;;1.20;1.10;;;1.90;97.30;;;;;;5089128;28;20510;-86
2023/03/28 04:49:16;;;;;;;3.40;1.13;;;1.90;97.30;;;;;;5093307;28;20523;-87
2023/03/28 04:51:42;;;;;;;1.00;0.90;;;2.00;97.30;;;;;;5093212;28;20174;-87
2023/03/28 04:54:07;;;;;;;1.23;1.13;;;2.00;97.30;;;;;;5094557;28;21029;-87
2023/03/28 04:56:33;;;;;;;1.73;1.63;;;1.90;97.30;;;;;;5094513;28;20641;-86
2023/03/28 04:58:58;;;;;;;2.47;1.40;;;1.90;97.30;;;;;;5094923;28;20283;-85
2023/03/28 05:01:26;;;;;;;56.60;1.93;;;1.90;97.30;;;;;;5085888;28;20178;-87
2023/03/28 05:03:52;;;;;;;1.33;1.20;;;1.90;97.30;;;;;;5095985;28;20178;-88
2023/03/28 05:06:18;;;;;;;3.63;1.40;;;1.90;97.30;;;;;;5095798;28;20439;-87
2023/03/28 05:08:43;;;;;;;9.20;2.40;;;1.90;97.30;;;;;;5096000;28;20202;-87
2023/03/28 05:11:10;;;;;;;1.00;0.90;;;1.90;97.30;;;;;;5093755;28;20213;-87
2023/03/28 05:13:35;;;;;;;1.70;1.60;;;1.80;97.30;;;;;;5092176;28;20212;-87
2023/03/28 05:16:01;;;;;;;4.30;3.37;;;1.80;97.30;;;;;;5092755;28;20500;-86
2023/03/28 05:18:27;;;;;;;1.80;1.50;;;1.80;97.30;;;;;;5092731;28;20198;-87
2023/03/28 05:20:52;;;;;;;1.20;1.10;;;1.70;97.30;;;;;;5092044;28;20182;-87
2023/03/28 05:23:18;;;;;;;1.53;1.43;;;1.70;97.30;;;;;;5091061;28;20254;-87
2023/03/28 05:25:52;;;;;;;1.13;1.03;;;1.70;97.30;;;;;;5092440;28;20170;-88
2023/03/28 05:28:17;;;;;;;1.30;1.20;;;1.70;97.30;;;;;;5093311;28;20600;-86
2023/03/28 05:30:43;;;;;;;1.53;1.43;;;1.70;97.30;;;;;;5091191;28;20524;-86
2023/03/28 05:33:08;;;;;;;3.50;1.97;;;1.70;97.30;;;;;;5083472;28;20178;-86
2023/03/28 05:35:36;;;;;;;2.20;1.13;;;1.70;97.30;;;;;;5092426;28;20210;-87
2023/03/28 05:38:02;;;;;;;1.47;1.37;;;1.70;97.30;;;;;;5092957;28;20260;-87
2023/03/28 05:40:28;;;;;;;2.30;1.27;;;1.70;97.30;;;;;;5091703;28;20431;-88
2023/03/28 05:42:53;;;;;;;1.20;1.10;;;1.70;97.30;;;;;;5094931;28;20412;-87
2023/03/28 05:45:19;;;;;;;5.27;2.93;;;1.60;97.30;;;;;;5091967;28;20269;-87
2023/03/28 05:47:44;;;;;;;10.70;1.93;;;1.60;97.30;;;;;;5091588;28;20266;-87
2023/03/28 05:50:10;;;;;;;1.30;1.20;;;1.60;97.30;;;;;;5091984;28;20217;-87
2023/03/28 05:52:36;;;;;;;1.93;1.83;;;1.60;97.30;;;;;;5092024;28;20186;-87
2023/03/28 05:55:01;;;;;;;1.50;1.40;;;1.50;97.30;;;;;;5092535;28;20206;-87
2023/03/28 05:57:27;;;;;;;1.10;1.00;;;1.50;97.30;;;;;;5092503;28;20174;-87
2023/03/28 05:59:53;;;;;;;2.60;2.10;;;1.50;97.30;;;;;;5091879;28;20209;-87
2023/03/28 06:02:20;;;;;;;1.07;0.97;;;1.50;97.30;;;;;;5090497;28;20175;-87
2023/03/28 06:04:46;;;;;;;2.20;1.50;;;1.60;97.30;;;;;;5090475;28;20182;-87
2023/03/28 06:07:12;;;;;;;1.20;1.10;;;1.60;97.30;;;;;;5091608;28;20565;-87
2023/03/28 06:09:38;;;;;;;1.40;1.33;;;1.70;97.30;;;;;;5094491;28;20206;-87
2023/03/28 06:12:04;;;;;;;5.17;3.03;;;1.70;97.30;;;;;;5095046;28;20424;-87
2023/03/28 06:14:30;;;;;;;1.00;0.90;;;1.70;97.30;;;;;;5088506;28;20706;-87
2023/03/28 06:16:57;;;;;;;1.17;1.07;;;1.80;97.30;;;;;;5098643;28;20416;-87
2023/03/28 06:19:23;;;;;;;1.53;1.37;;;1.80;97.30;;;;;;5100174;28;20436;-87
2023/03/28 06:21:49;;;;;;;1.00;0.90;;;1.90;97.30;;;;;;5100975;28;20973;-87
2023/03/28 06:24:14;;;;;;;1.30;1.20;;;2.00;97.30;;;;;;5100645;28;20186;-87
2023/03/28 06:26:40;;;;;;;1.30;1.20;;;2.00;97.30;;;;;;5100154;28;20570;-87
2023/03/28 06:29:06;;;;;;;1.30;1.20;;;2.00;97.30;;;;;;5099641;28;20589;-87
2023/03/28 06:31:32;;;;;;;1.87;1.77;;;2.10;97.30;;;;;;5100159;28;20392;-87
2023/03/28 06:33:57;;;;;;;1.13;1.03;;;2.20;97.30;;;;;;5101437;28;20209;-88
2023/03/28 06:36:23;;;;;;;1.40;1.30;;;2.20;97.30;;;;;;5100976;28;20852;-87
2023/03/28 06:38:52;;;;;;;1.43;1.20;;;2.20;97.30;;;;;;5102244;28;20664;-87
2023/03/28 06:41:18;;;;;;;1.53;1.43;;;2.30;97.30;;;;;;5100081;28;20232;-88
2023/03/28 06:43:44;;;;;;;1.10;1.00;;;2.40;97.30;;;;;;5100254;28;20428;-87
2023/03/28 06:46:10;;;;;;;1.50;1.40;;;2.40;97.30;;;;;;5099899;28;20193;-87
2023/03/28 06:48:36;;;;;;;1.20;1.10;;;2.40;97.30;;;;;;5096730;28;20577;-87
2023/03/28 06:51:02;;;;;;;1.10;1.10;;;2.50;97.30;;;;;;5098126;28;20179;-88
2023/03/28 06:53:28;;;;;;;1.73;1.60;;;2.60;97.30;;;;;;5098661;28;20420;-87
2023/03/28 06:55:54;;;;;;;1.53;1.43;;;2.70;97.30;;;;;;5098813;28;20416;-87
2023/03/28 06:58:21;;;;;;;1.27;1.17;;;2.70;97.30;;;;;;5096875;28;20206;-86
2023/03/28 07:00:47;;;;;;;1.20;1.10;;;2.70;97.30;;;;;;5097670;28;20837;-87
2023/03/28 07:03:13;;;;;;;2.50;1.60;;;2.80;97.30;;;;;;5098291;28;20421;-88
2023/03/28 07:05:40;;;;;;;1.27;1.17;;;2.80;97.30;;;;;;5097927;28;20182;-87
2023/03/28 07:08:07;;;;;;;1.63;1.30;;;2.80;97.30;;;;;;5098034;28;20447;-87
2023/03/28 07:10:37;;;;;;;6.40;1.60;;;2.80;97.30;;;;;;5097262;28;20447;-87
2023/03/28 07:13:02;;;;;;;1.10;1.00;;;2.80;97.30;;;;;;5097892;28;20440;-87
2023/03/28 07:15:28;;;;;;;1.47;1.37;;;2.80;97.30;;;;;;5094921;28;20499;-87
2023/03/28 07:17:54;;;;;;;1.10;1.00;;;2.80;97.30;;;;;;5094116;28;20178;-87
2023/03/28 07:20:20;;;;;;;7.93;1.37;;;2.70;97.30;;;;;;5098412;28;20174;-87
2023/03/28 07:22:46;;;;;;;1.30;1.20;;;2.80;97.30;;;;;;5101584;28;20198;-88
2023/03/28 07:25:11;;;;;;;1.37;1.27;;;2.90;97.30;;;;;;5100274;28;20420;-87
2023/03/28 07:27:37;;;;;;;1.37;1.27;;;3.00;97.30;;;;;;5100637;28;20575;-87
2023/03/28 07:30:05;;;;;;;1.47;1.37;;;3.10;97.30;;;;;;5099674;28;20202;-88
2023/03/28 07:32:30;;;;;;;7.70;1.87;;;3.20;97.30;;;;;;5099101;28;20233;-87
2023/03/28 07:34:56;;;;;;;1.33;1.30;;;3.30;97.30;;;;;;5101906;28;20452;-87
2023/03/28 07:37:22;;;;;;;1.13;1.03;;;3.30;97.30;;;;;;5099847;28;20182;-87
2023/03/28 07:39:47;;;;;;;1.53;1.43;;;3.30;97.30;;;;;;5098206;28;20206;-87
2023/03/28 07:42:15;;;;;;;1.20;1.10;;;3.30;96.40;;;;;;5100012;28;20186;-88
2023/03/28 07:44:41;;;;;;;1.10;1.00;;;3.40;96.70;;;;;;5098511;28;20299;-88
2023/03/28 07:47:07;;;;;;;1.10;1.00;;;3.40;95.70;;;;;;5099362;28;20438;-88
2023/03/28 07:49:33;;;;;;;1.07;0.97;;;3.40;96.00;;;;;;5099119;28;20453;-88
2023/03/28 07:51:59;;;;;;;1.80;1.70;;;3.40;96.40;;;;;;5098173;28;20412;-88
2023/03/28 07:54:27;;;;;;;1.20;1.10;;;3.40;96.20;;;;;;5099388;28;20524;-88
2023/03/28 07:56:53;;;;;;;1.53;1.43;;;3.30;95.00;;;;;;5098602;28;20417;-86
2023/03/28 07:59:19;;;;;;;1.20;1.10;;;3.40;95.60;;;;;;5098560;28;20440;-88
2023/03/28 08:01:45;;;;;;;1.00;0.90;;;3.50;95.40;;;;;;5098316;28;20419;-88
2023/03/28 08:04:12;;;;;;;1.20;1.10;;;3.50;95.00;;;;;;5097567;28;20460;-87
2023/03/28 08:06:39;;;;;;;1.33;1.23;;;3.50;94.70;;;;;;5099738;28;20427;-87
2023/03/28 08:09:09;;;;;;;10.23;1.43;;;3.60;94.70;;;;;;5098620;28;20444;-88
2023/03/28 08:11:36;;;;;;;3.03;2.03;;;3.70;94.50;;;;;;5091899;28;20417;-87
2023/03/28 08:14:03;;;;;;;1.60;1.50;;;3.70;93.70;;;;;;5098891;28;20837;-88
2023/03/28 08:16:29;;;;;;;2.30;1.33;;;3.80;93.60;;;;;;5097967;28;20419;-88
2023/03/28 08:18:55;;;;;;;1.43;1.33;;;4.00;94.30;;;;;;5094587;28;20440;-87
2023/03/28 08:21:20;;;;;;;1.47;1.37;;;4.10;93.80;;;;;;5095045;28;20423;-87
2023/03/28 08:23:46;;;;;;;1.17;1.07;;;4.20;92.60;;;;;;5098407;28;20427;-88
2023/03/28 08:26:15;;;;;;;1.40;1.30;;;4.20;91.00;;;;;;5093870;28;20269;-87
2023/03/28 08:28:40;;;;;;;2.30;1.43;;;4.30;90.80;;;;;;5097836;28;20232;-88
2023/03/28 08:31:15;;;;;;;1.30;1.20;;;4.40;89.40;;;;;;5098344;28;20456;-87
2023/03/28 08:33:42;;;;;;;1.10;1.00;;;4.50;89.80;;;;;;5098408;28;20194;-87
2023/03/28 08:36:13;;;;;;;1.10;1.00;;;4.70;91.10;;;;;;5095559;28;20555;-87
2023/03/28 08:38:39;;;;;;;1.20;1.10;;;4.70;89.40;;;;;;5098315;28;20431;-87
2023/03/28 08:41:39;;;;;;;0.90;0.80;;;4.70;89.10;;;;;;5097784;28;20409;-87
2023/03/28 08:44:18;;;;;;;1.30;1.20;;;4.80;88.40;;;;;;5092233;28;20431;-87
2023/03/28 08:46:45;;;;;;;1.30;1.20;;;4.80;88.50;;;;;;5085546;28;20482;-87
2023/03/28 08:49:15;;;;;;;1.67;1.57;;;4.80;88.30;;;;;;5097469;28;20519;-87
2023/03/28 08:52:01;;;;;;;1.23;1.13;;;4.90;86.90;;;;;;5095135;28;20773;-87
2023/03/28 08:54:42;;;;;;;2.57;1.77;;;5.00;86.90;;;;;;5095687;28;20605;-87
2023/03/28 08:57:16;;;;;;;1.20;1.10;;;5.10;86.80;;;;;;5093799;28;20453;-87
2023/03/28 08:59:55;;;;;;;1.43;1.00;;;5.10;87.90;;;;;;5094547;28;20966;-87
2023/03/28 09:02:25;;;;;;;1.40;1.30;;;5.20;87.30;;;;;;5095107;28;20506;-87
2023/03/28 09:04:51;;;;;;;1.83;1.07;;;5.30;87.10;;;;;;5094875;28;20432;-88
2023/03/28 09:07:31;;;;;;;1.23;1.13;;;5.20;86.50;;;;;;5094566;28;20421;-87
2023/03/28 09:10:18;;;;;;;1.13;1.00;;;5.20;86.70;;;;;;5093733;28;20444;-87
2023/03/28 09:13:00;;;;;;;1.17;1.07;;;5.30;87.30;;;;;;5087155;28;20412;-86
2023/03/28 09:15:34;;;;;;;2.10;1.10;;;5.50;86.60;;;;;;5094413;28;20460;-88
2023/03/28 09:18:05;;;;;;;1.47;1.40;;;5.60;87.40;;;;;;5093984;28;20576;-88
2023/03/28 09:20:35;;;;;;;2.13;1.20;;;5.80;88.40;;;;;;5093086;28;20420;-87
2023/03/28 09:23:28;;;;;;;1.40;1.30;;;6.00;88.10;;;;;;5093611;28;20423;-87
2023/03/28 09:26:05;;;;;;;1.10;1.00;;;6.00;88.10;;;;;;5088014;28;20431;-87
2023/03/28 09:29:03;;;;;;;1.33;1.23;;;5.80;86.70;;;;;;5089156;28;20532;-87
2023/03/28 09:31:38;;;;;;;1.67;1.17;;;5.70;86.50;;;;;;5091389;28;20513;-88
2023/03/28 09:34:05;;;;;;;1.80;1.63;;;5.60;85.60;;;;;;5094371;28;20861;-87
2023/03/28 09:36:32;;;;;;;1.17;1.07;;;5.70;85.00;;;;;;5092726;28;20427;-87
2023/03/28 09:39:02;;;;;;;1.13;1.03;;;5.90;84.80;;;;;;5092183;28;20559;-87
2023/03/28 09:41:48;;;;;;;0.90;0.80;;;6.20;84.80;;;;;;5091692;28;20469;-87
2023/03/28 09:44:17;;;;;;;0.90;0.80;;;6.30;83.20;;;;;;5091619;28;20420;-87
2023/03/28 09:46:45;;;;;;;1.10;1.00;;;6.10;83.10;;;;;;5091278;28;20425;-87
2023/03/28 09:49:21;;;;;;;6.80;3.37;;;6.00;85.40;;;;;;5091480;28;20451;-86
2023/03/28 09:51:49;;;;;;;1.43;1.33;;;6.00;86.00;;;;;;5085280;28;20412;-87
2023/03/28 09:54:21;;;;;;;3.17;1.43;;;6.10;84.60;;;;;;5090092;28;20516;-86
2023/03/28 09:56:47;;;;;;;2.40;1.10;;;6.20;85.20;;;;;;5083779;28;20417;-87
2023/03/28 09:59:27;;;;;;;0.90;0.80;;;6.40;84.20;;;;;;5091850;28;20428;-86
2023/03/28 10:01:54;;;;;;;1.00;0.90;;;6.30;83.80;;;;;;5094682;28;20185;-87
2023/03/28 10:04:32;;;;;;;1.67;1.57;;;6.10;85.10;;;;;;5093709;28;20423;-86
2023/03/28 10:07:21;;;;;;;2.63;1.50;;;6.10;86.60;;;;;;5094698;28;20473;-86
2023/03/28 10:09:46;;;;;;;1.60;1.50;;;6.40;85.50;;;;;;5107656;28;20449;-87
2023/03/28 10:12:42;;;;;;;1.97;1.40;;;6.60;85.40;;;;;;5110141;28;20427;-88
2023/03/28 10:15:32;;;;;;;1.73;1.10;;;6.50;85.20;;;;;;5091612;28;20206;-87
2023/03/28 10:18:00;;;;;;;6.63;1.63;;;6.20;86.40;;;;;;5085586;28;20423;-87
2023/03/28 10:20:26;;;;;;;2.17;2.00;;;6.20;87.60;;;;;;5091083;28;20476;-87
2023/03/28 10:22:54;;;;;;;1.27;1.17;;;6.40;87.00;;;;;;5091562;28;20519;-88
2023/03/28 10:25:30;;;;;;;1.33;1.30;;;6.70;86.80;;;;;;5090779;28;20186;-86
2023/03/28 10:27:59;;;;;;;1.17;1.07;;;6.80;84.20;;;;;;5092384;28;20515;-87
2023/03/28 10:30:31;;;;;;;3.73;1.17;;;6.80;82.80;;;;;;5090558;28;20493;-86
2023/03/28 10:33:15;;;;;;;5.73;1.43;;;6.60;83.50;;;;;;5091466;28;20424;-87
2023/03/28 10:35:44;;;;;;;0.93;0.83;;;6.50;83.20;;;;;;5084032;28;20954;-87
2023/03/28 10:38:16;;;;;;;1.50;1.40;;;6.40;83.30;;;;;;5091285;28;20452;-87
2023/03/28 10:40:41;;;;;;;1.00;0.90;;;6.70;84.50;;;;;;5091111;28;21033;-87
2023/03/28 10:43:14;;;;;;;1.00;0.90;;;7.00;83.90;;;;;;5090057;28;20424;-87
2023/03/28 10:45:45;;;;;;;3.83;1.50;;;7.20;83.20;;;;;;5090801;28;20302;-86
2023/03/28 10:48:15;;;;;;;6.20;1.20;;;7.30;83.20;;;;;;5090176;28;20507;-87
2023/03/28 10:50:48;;;;;;;1.40;1.30;;;7.40;81.10;;;;;;5082067;28;20500;-87
2023/03/28 10:53:37;;;;;;;1.77;1.67;;;7.50;81.10;;;;;;5091195;28;20427;-87
2023/03/28 10:56:24;;;;;;;1.30;1.20;;;7.40;82.80;;;;;;5090107;28;20420;-87
2023/03/28 10:59:12;;;;;;;1.10;1.00;;;7.40;82.90;;;;;;5083689;28;20465;-87
2023/03/28 11:02:06;;;;;;;1.53;1.43;;;7.40;81.70;;;;;;5085343;28;20931;-86
2023/03/28 11:04:49;;;;;;;1.30;1.23;;;7.20;81.30;;;;;;5094110;28;20416;-86
2023/03/28 11:07:35;;;;;;;1.37;1.30;;;7.20;82.80;;;;;;5093322;28;20423;-87
2023/03/28 11:10:23;;;;;;;1.07;0.97;;;7.00;81.70;;;;;;5092829;28;20476;-88
2023/03/28 11:13:27;;;;;;;1.20;1.10;;;6.80;82.20;;;;;;5087230;28;20832;-87
2023/03/28 11:16:20;;;;;;;1.20;1.10;;;6.80;83.90;;;;;;5087245;28;20436;-87
2023/03/28 11:19:23;;;;;;;2.63;2.43;;;7.20;85.90;;;;;;5086471;28;20444;-87
2023/03/28 11:22:22;;;;;;;1.10;1.00;;;7.50;85.40;;;;;;5087507;28;20432;-87
2023/03/28 11:25:24;;;;;;;1.87;1.80;;;7.70;83.40;;;;;;5081943;28;20412;-87
2023/03/28 11:27:59;;;;;;;4.60;1.57;;;7.50;83.20;;;;;;5087054;28;20521;-87
2023/03/28 11:30:32;;;;;;;1.70;1.60;;;7.30;83.60;;;;;;5093220;28;20416;-87
2023/03/28 11:33:13;;;;;;;3.73;3.53;;;7.20;84.40;;;;;;5093672;28;20427;-88
2023/03/28 11:36:17;;;;;;;3.60;2.90;;;7.20;85.20;;;;;;5094653;28;20460;-88
2023/03/28 11:38:54;;;;;;;6.23;1.43;;;7.10;85.20;;;;;;5081881;28;20444;-87
2023/03/28 11:41:23;;;;;;;2.17;2.00;;;7.40;85.20;;;;;;5093020;28;20420;-87
2023/03/28 11:44:19;;;;;;;3.00;2.70;;;7.60;84.10;;;;;;5087841;28;20417;-87
2023/03/28 11:47:11;;;;;;;1.50;1.30;;;7.80;80.90;;;;;;5086650;28;21083;-87
2023/03/28 11:50:16;;;;;;;1.63;1.53;;;7.90;79.70;;;;;;5093599;28;20433;-87
2023/03/28 11:52:50;;;;;;;1.60;1.50;;;8.30;81.40;;;;;;5068324;28;20507;-87
2023/03/28 11:55:21;;;;;;;1.20;1.10;;;8.70;81.10;;;;;;5094323;28;20459;-87
2023/03/28 11:58:17;;;;;;;2.70;2.40;;;8.80;78.50;;;;;;5093236;28;20416;-87
2023/03/28 12:00:45;;;;;;;1.23;1.10;;;8.40;77.80;;;;;;5090687;28;20418;-87
2023/03/28 12:03:19;;;;;;;1.10;1.00;;;8.00;77.00;;;;;;5089980;28;20421;-88
2023/03/28 12:06:15;;;;;;;1.73;1.67;;;7.70;78.30;;;;;;5085703;28;20458;-87
2023/03/28 12:08:45;;;;;;;0.83;0.77;;;7.70;79.60;;;;;;5084963;28;20949;-87
2023/03/28 12:11:18;;;;;;;1.13;1.03;;;8.10;81.40;;;;;;5092046;28;20450;-87
2023/03/28 12:13:56;;;;;;;1.00;0.90;;;8.40;81.30;;;;;;5085973;28;20444;-87
2023/03/28 12:16:36;;;;;;;1.70;1.60;;;8.80;79.60;;;;;;5093060;28;20954;-86
2023/03/28 12:19:09;;;;;;;1.33;1.23;;;8.80;80.20;;;;;;5093022;28;20437;-86
2023/03/28 12:21:50;;;;;;;1.57;1.50;;;8.50;80.90;;;;;;5093215;28;20417;-88
2023/03/28 12:24:33;;;;;;;1.43;1.33;;;8.20;80.90;;;;;;5090301;28;20427;-87
2023/03/28 12:27:17;;;;;;;1.17;1.07;;;7.90;81.50;;;;;;5085539;28;20443;-88
2023/03/28 12:30:09;;;;;;;1.27;1.17;;;7.90;82.00;;;;;;5084267;28;20439;-87
2023/03/28 12:33:03;;;;;;;1.40;1.20;;;7.70;83.00;;;;;;5091815;28;20471;-87
2023/03/28 12:35:53;;;;;;;1.33;1.23;;;7.70;83.10;;;;;;5092031;28;20547;-87
2023/03/28 12:38:21;;;;;;;2.17;1.70;;;8.00;82.80;;;;;;5090049;28;20937;-87
2023/03/28 12:40:47;;;;;;;1.03;1.00;;;8.20;81.60;;;;;;5092538;28;20428;-87
2023/03/28 12:43:15;;;;;;;0.93;0.87;;;8.50;82.70;;;;;;5092212;28;20489;-87
2023/03/28 12:45:46;;;;;;;17.53;1.87;;;8.80;82.70;;;;;;5092385;28;20210;-87
2023/03/28 12:48:24;;;;;;;1.20;1.10;;;9.10;81.80;;;;;;5093241;28;20448;-87
2023/03/28 12:50:55;;;;;;;3.80;2.33;;;9.20;81.30;;;;;;5091707;28;20524;-86
2023/03/28 12:53:23;;;;;;;1.37;1.27;;;9.00;81.10;;;;;;5090503;28;20784;-87
2023/03/28 12:55:53;;;;;;;2.20;2.00;;;8.60;82.10;;;;;;5091809;28;20533;-87
2023/03/28 12:58:26;;;;;;;1.13;1.10;;;8.30;83.90;;;;;;5088964;28;20493;-87
2023/03/28 13:00:58;;;;;;;0.77;0.73;;;8.10;85.30;;;;;;5091731;28;20416;-87
2023/03/28 13:03:34;;;;;;;1.30;1.20;;;8.20;85.60;;;;;;5091033;28;20427;-86
2023/03/28 13:06:39;;;;;;;1.10;1.03;;;8.20;86.90;;;;;;5088998;28;20934;-87
2023/03/28 13:09:29;;;;;;;1.10;1.00;;;8.70;87.20;;;;;;5089049;28;20718;-86
2023/03/28 13:15:12;;;;;;;1.13;1.03;;;9.60;86.40;;;;;;5085211;28;20496;-87
2023/03/28 13:17:45;;;;;;;1.30;1.20;;;10.00;85.50;;;;;;5089385;28;20417;-86
2023/03/28 13:20:17;;;;;;;1.07;0.97;;;10.20;84.60;;;;;;5089907;28;20448;-87
2023/03/28 13:22:56;;;;;;;1.10;1.00;;;10.20;84.60;;;;;;5090060;28;20423;-86
2023/03/28 13:25:24;;;;;;;1.37;1.27;;;10.30;83.00;;;;;;5088193;28;20452;-84
2023/03/28 13:27:56;;;;;;;1.10;1.03;;;10.30;82.30;;;;;;5080798;28;20426;-86
2023/03/28 13:30:25;;;;;;;3.93;3.10;;;10.50;82.80;;;;;;5085277;28;20938;-86